createdAt,value
2022-09-17T00:00:58.968Z,7.70
2022-09-17T00:02:38.906Z,7.70
2022-09-17T00:04:11.931Z,7.70
2022-09-17T00:05:44.711Z,7.70
2022-09-17T00:07:17.435Z,7.70
2022-09-17T00:08:50.566Z,7.70
2022-09-17T00:10:23.244Z,7.80
2022-09-17T00:11:55.364Z,7.80
2022-09-17T00:13:27.690Z,7.70
2022-09-17T00:14:59.911Z,7.80
2022-09-17T00:16:40.451Z,7.80
2022-09-17T00:18:15.004Z,7.70
2022-09-17T00:19:47.533Z,7.70
2022-09-17T00:21:21.475Z,7.70
2022-09-17T00:22:54.527Z,7.70
2022-09-17T00:24:26.674Z,7.70
2022-09-17T00:25:59.403Z,7.70
2022-09-17T00:27:32.510Z,7.70
2022-09-17T00:29:05.778Z,7.70
2022-09-17T00:30:43.671Z,7.70
2022-09-17T00:32:16.039Z,7.60
2022-09-17T00:33:49.239Z,7.60
2022-09-17T00:35:21.857Z,7.70
2022-09-17T00:36:53.995Z,7.70
2022-09-17T00:38:27.507Z,7.70
2022-09-17T00:39:59.712Z,7.70
2022-09-17T00:41:35.662Z,7.70
2022-09-17T00:43:12.457Z,7.70
2022-09-17T00:44:56.558Z,7.70
2022-09-17T00:46:43.603Z,7.70
2022-09-17T00:48:16.020Z,7.60
2022-09-17T00:49:54.016Z,7.50
2022-09-17T00:51:47.819Z,7.60
2022-09-17T00:53:22.883Z,7.50
2022-09-17T00:55:12.800Z,7.50
2022-09-17T00:56:45.136Z,7.50
2022-09-17T00:58:22.660Z,7.50
2022-09-17T00:59:56.055Z,7.50
2022-09-17T01:01:30.067Z,7.50
2022-09-17T01:03:02.911Z,7.50
2022-09-17T01:04:35.201Z,7.50
2022-09-17T01:06:22.781Z,7.60
2022-09-17T01:08:19.219Z,7.60
2022-09-17T01:10:23.454Z,7.60
2022-09-17T01:12:19.936Z,7.60
2022-09-17T01:14:11.183Z,7.60
2022-09-17T01:16:00.532Z,7.60
2022-09-17T01:17:59.164Z,7.60
2022-09-17T01:19:42.975Z,7.60
2022-09-17T01:21:52.480Z,7.60
2022-09-17T01:24:08.104Z,7.60
2022-09-17T01:26:04.762Z,7.60
2022-09-17T01:28:53.691Z,7.60
2022-09-17T01:30:52.138Z,7.50
2022-09-17T01:32:56.608Z,7.50
2022-09-17T01:34:40.579Z,7.60
2022-09-17T01:36:43.230Z,7.60
2022-09-17T01:38:31.805Z,7.60
2022-09-17T01:40:28.613Z,7.60
2022-09-17T01:42:57.659Z,7.60
2022-09-17T01:44:55.527Z,7.60
2022-09-17T01:46:35.824Z,7.60
2022-09-17T01:48:19.666Z,7.60
2022-09-17T01:50:00.506Z,7.60
2022-09-17T01:51:46.198Z,7.70
2022-09-17T01:53:25.334Z,7.70
2022-09-17T01:55:07.028Z,7.70
2022-09-17T01:56:58.168Z,7.70
2022-09-17T01:58:38.592Z,7.70
2022-09-17T02:00:17.209Z,7.70
2022-09-17T02:02:00.690Z,7.70
2022-09-17T02:03:42.630Z,7.70
2022-09-17T02:05:35.591Z,7.60
2022-09-17T02:07:23.433Z,7.60
2022-09-17T02:09:02.715Z,7.50
2022-09-17T02:10:44.652Z,7.50
2022-09-17T02:12:28.552Z,7.50
2022-09-17T02:14:10.511Z,7.50
2022-09-17T02:16:17.984Z,7.50
2022-09-17T02:17:58.958Z,7.40
2022-09-17T02:19:37.421Z,7.40
2022-09-17T02:21:46.868Z,7.40
2022-09-17T02:23:29.755Z,7.40
2022-09-17T02:25:25.864Z,7.40
2022-09-17T02:27:07.125Z,7.40
2022-09-17T02:28:56.805Z,7.40
2022-09-17T02:30:30.132Z,7.30
2022-09-17T02:32:03.574Z,7.30
2022-09-17T02:33:39.524Z,7.30
2022-09-17T02:35:14.395Z,7.30
2022-09-17T02:36:46.890Z,7.30
2022-09-17T02:38:26.274Z,7.30
2022-09-17T02:39:58.552Z,7.30
2022-09-17T02:42:15.924Z,7.30
2022-09-17T02:44:45.231Z,7.30
2022-09-17T02:46:31.982Z,7.30
2022-09-17T02:48:44.201Z,7.30
2022-09-17T02:50:25.410Z,7.20
2022-09-17T02:52:05.649Z,7.20
2022-09-17T02:54:00.306Z,7.30
2022-09-17T02:55:59.760Z,7.30
2022-09-17T02:58:07.797Z,7.30
2022-09-17T03:00:18.475Z,7.30
2022-09-17T03:02:05.692Z,7.30
2022-09-17T03:03:43.343Z,7.30
2022-09-17T03:05:20.337Z,7.30
2022-09-17T03:06:53.974Z,7.30
2022-09-17T03:08:35.190Z,7.30
2022-09-17T03:10:08.480Z,7.30
2022-09-17T03:11:41.327Z,7.20
2022-09-17T03:13:13.697Z,7.20
2022-09-17T03:14:45.858Z,7.20
2022-09-17T03:16:18.196Z,7.20
2022-09-17T03:17:53.393Z,7.30
2022-09-17T03:19:27.928Z,7.20
2022-09-17T03:21:00.742Z,7.20
2022-09-17T03:22:33.037Z,7.20
2022-09-17T03:24:05.527Z,7.20
2022-09-17T03:25:37.928Z,7.20
2022-09-17T03:27:10.122Z,7.20
2022-09-17T03:28:42.341Z,7.20
2022-09-17T03:30:14.684Z,7.20
2022-09-17T03:31:47.397Z,7.20
2022-09-17T03:33:19.999Z,7.20
2022-09-17T03:34:53.920Z,7.20
2022-09-17T03:36:26.207Z,7.30
2022-09-17T03:37:58.616Z,7.20
2022-09-17T03:39:31.279Z,7.20
2022-09-17T03:41:09.984Z,7.20
2022-09-17T03:42:42.160Z,7.20
2022-09-17T03:44:15.553Z,7.20
2022-09-17T03:45:49.234Z,7.20
2022-09-17T03:47:21.359Z,7.20
2022-09-17T03:48:53.626Z,7.20
2022-09-17T03:50:26.360Z,7.30
2022-09-17T03:51:58.503Z,7.30
2022-09-17T03:53:30.955Z,7.20
2022-09-17T03:55:04.401Z,7.20
2022-09-17T03:56:36.760Z,7.20
2022-09-17T03:58:09.144Z,7.20
2022-09-17T03:59:41.294Z,7.20
2022-09-17T04:01:13.651Z,7.20
2022-09-17T04:02:46.586Z,7.20
2022-09-17T04:04:18.688Z,7.10
2022-09-17T04:05:51.515Z,7.10
2022-09-17T04:07:23.692Z,7.10
2022-09-17T04:08:57.174Z,7.10
2022-09-17T04:10:29.345Z,7.10
2022-09-17T04:12:01.663Z,7.10
2022-09-17T04:13:34.084Z,7.10
2022-09-17T04:15:07.583Z,7.10
2022-09-17T04:16:39.772Z,7.10
2022-09-17T04:18:12.648Z,7.10
2022-09-17T04:19:45.351Z,7.10
2022-09-17T04:21:17.643Z,7.10
2022-09-17T04:22:49.856Z,7.10
2022-09-17T04:24:22.000Z,7.20
2022-09-17T04:25:54.430Z,7.20
2022-09-17T04:27:26.855Z,7.30
2022-09-17T04:28:58.943Z,7.30
2022-09-17T04:30:31.156Z,7.30
2022-09-17T04:32:03.599Z,7.40
2022-09-17T04:33:37.500Z,7.40
2022-09-17T04:35:09.981Z,7.40
2022-09-17T04:36:42.274Z,7.40
2022-09-17T04:38:18.423Z,7.40
2022-09-17T04:39:50.852Z,7.50
2022-09-17T04:41:23.002Z,7.80
2022-09-17T04:42:57.023Z,8.10
2022-09-17T04:44:29.184Z,8.20
2022-09-17T04:46:01.607Z,8.50
2022-09-17T04:47:33.816Z,8.80
2022-09-17T04:49:06.069Z,9.20
2022-09-17T04:50:38.207Z,9.60
2022-09-17T04:52:10.577Z,10.00
2022-09-17T04:53:42.814Z,10.40
2022-09-17T04:55:16.667Z,10.70
2022-09-17T04:56:48.848Z,11.00
2022-09-17T04:58:21.275Z,11.40
2022-09-17T04:59:53.609Z,11.80
2022-09-17T05:01:26.111Z,12.20
2022-09-17T05:02:58.364Z,12.60
2022-09-17T05:04:31.280Z,12.80
2022-09-17T05:06:03.603Z,12.90
2022-09-17T05:07:40.027Z,13.20
2022-09-17T05:09:12.224Z,13.50
2022-09-17T05:10:45.092Z,13.90
2022-09-17T05:12:17.204Z,14.40
2022-09-17T05:13:49.582Z,14.80
2022-09-17T05:15:24.353Z,15.30
2022-09-17T05:16:56.964Z,15.20
2022-09-17T05:18:29.196Z,15.60
2022-09-17T05:20:01.900Z,15.60
2022-09-17T05:21:34.063Z,15.90
2022-09-17T05:23:06.418Z,15.70
2022-09-17T05:24:39.757Z,15.90
2022-09-17T05:26:12.268Z,16.10
2022-09-17T05:27:44.612Z,16.20
2022-09-17T05:29:17.031Z,16.30
2022-09-17T05:30:49.250Z,16.30
2022-09-17T05:32:21.451Z,16.60
2022-09-17T05:33:53.551Z,16.80
2022-09-17T05:35:25.943Z,16.90
2022-09-17T05:36:58.630Z,17.00
2022-09-17T05:38:31.653Z,17.00
2022-09-17T05:40:09.443Z,17.30
2022-09-17T05:41:41.994Z,17.40
2022-09-17T05:43:14.229Z,17.50
2022-09-17T05:44:46.417Z,17.30
2022-09-17T05:46:18.587Z,17.30
2022-09-17T05:47:59.732Z,17.30
2022-09-17T05:49:32.242Z,17.70
2022-09-17T05:51:04.479Z,17.50
2022-09-17T05:52:36.744Z,17.60
2022-09-17T05:54:09.574Z,17.10
2022-09-17T05:55:42.151Z,16.20
2022-09-17T05:57:15.970Z,15.60
2022-09-17T05:58:48.372Z,15.20
2022-09-17T06:00:20.840Z,14.80
2022-09-17T06:01:53.112Z,15.30
2022-09-17T06:03:25.509Z,15.40
2022-09-17T06:05:01.716Z,15.80
2022-09-17T06:06:34.264Z,16.50
2022-09-17T06:08:07.135Z,16.80
2022-09-17T06:09:41.040Z,16.90
2022-09-17T06:11:14.199Z,16.90
2022-09-17T06:12:46.512Z,17.00
2022-09-17T06:14:18.688Z,17.50
2022-09-17T06:15:54.543Z,18.00
2022-09-17T06:17:26.693Z,18.30
2022-09-17T06:18:59.220Z,18.80
2022-09-17T06:20:31.413Z,19.30
2022-09-17T06:22:05.456Z,19.80
2022-09-17T06:23:37.828Z,20.10
2022-09-17T06:25:10.266Z,20.50
2022-09-17T06:26:42.660Z,20.70
2022-09-17T06:28:15.048Z,20.70
2022-09-17T06:29:47.372Z,20.40
2022-09-17T06:31:19.775Z,20.40
2022-09-17T06:32:52.140Z,20.40
2022-09-17T06:34:24.369Z,20.20
2022-09-17T06:36:01.882Z,20.20
2022-09-17T06:37:36.332Z,19.70
2022-09-17T06:39:09.519Z,19.60
2022-09-17T06:40:42.034Z,19.30
2022-09-17T06:42:14.285Z,19.10
2022-09-17T06:43:46.701Z,18.90
2022-09-17T06:45:18.867Z,18.90
2022-09-17T06:46:51.319Z,18.90
2022-09-17T06:48:24.628Z,19.10
2022-09-17T06:49:57.193Z,19.20
2022-09-17T06:51:29.364Z,19.10
2022-09-17T06:53:01.754Z,19.00
2022-09-17T06:54:33.887Z,18.80
2022-09-17T06:56:08.584Z,18.60
2022-09-17T06:57:40.732Z,18.60
2022-09-17T06:59:13.172Z,18.80
2022-09-17T07:00:45.507Z,19.00
2022-09-17T07:02:17.907Z,19.10
2022-09-17T07:03:50.478Z,19.20
2022-09-17T07:05:22.828Z,19.40
2022-09-17T07:06:54.995Z,19.40
2022-09-17T07:08:27.383Z,19.40
2022-09-17T07:09:59.476Z,19.40
2022-09-17T07:11:31.861Z,19.40
2022-09-17T07:13:04.443Z,19.20
2022-09-17T07:14:36.836Z,19.10
2022-09-17T07:16:10.695Z,18.90
2022-09-17T07:17:44.520Z,18.90
2022-09-17T07:19:16.804Z,18.80
2022-09-17T07:20:58.037Z,18.70
2022-09-17T07:22:30.127Z,18.30
2022-09-17T07:24:03.766Z,18.20
2022-09-17T07:25:36.095Z,18.20
2022-09-17T07:27:08.558Z,18.00
2022-09-17T07:28:42.243Z,17.90
2022-09-17T07:30:15.362Z,18.10
2022-09-17T07:31:47.553Z,18.10
2022-09-17T07:33:24.903Z,18.10
2022-09-17T07:34:57.875Z,18.20
2022-09-17T07:36:30.112Z,18.20
2022-09-17T07:38:02.795Z,18.20
2022-09-17T07:39:35.593Z,18.30
2022-09-17T07:41:15.591Z,18.50
2022-09-17T07:42:47.865Z,18.60
2022-09-17T07:44:20.143Z,18.40
2022-09-17T07:45:53.251Z,18.50
2022-09-17T07:47:25.448Z,18.60
2022-09-17T07:48:57.589Z,18.60
2022-09-17T07:50:31.817Z,18.80
2022-09-17T07:52:06.424Z,18.80
2022-09-17T07:53:38.781Z,18.90
2022-09-17T07:55:11.066Z,19.00
2022-09-17T07:56:43.328Z,19.20
2022-09-17T07:58:15.686Z,19.40
2022-09-17T07:59:47.871Z,19.70
2022-09-17T08:01:23.417Z,19.80
2022-09-17T08:02:57.068Z,19.90
2022-09-17T08:04:29.593Z,19.90
2022-09-17T08:06:08.266Z,19.90
2022-09-17T08:07:40.869Z,20.00
2022-09-17T08:09:13.423Z,19.90
2022-09-17T08:10:45.735Z,19.70
2022-09-17T08:12:19.490Z,19.70
2022-09-17T08:13:54.191Z,19.80
2022-09-17T08:15:26.527Z,19.70
2022-09-17T08:16:58.948Z,19.70
2022-09-17T08:18:32.700Z,19.50
2022-09-17T08:20:06.112Z,19.30
2022-09-17T08:21:38.393Z,19.40
2022-09-17T08:23:10.797Z,19.60
2022-09-17T08:24:42.912Z,19.50
2022-09-17T08:26:22.809Z,19.40
2022-09-17T08:27:59.005Z,19.20
2022-09-17T08:29:35.117Z,18.90
2022-09-17T08:31:09.235Z,18.80
2022-09-17T08:32:42.026Z,18.70
2022-09-17T08:34:14.351Z,18.60
2022-09-17T08:35:59.704Z,18.60
2022-09-17T08:37:32.922Z,18.70
2022-09-17T08:39:05.203Z,18.70
2022-09-17T08:40:54.756Z,18.80
2022-09-17T08:42:51.992Z,18.60
2022-09-17T08:44:35.824Z,18.60
2022-09-17T08:46:11.473Z,18.50
2022-09-17T08:47:44.444Z,18.60
2022-09-17T08:49:34.540Z,18.50
2022-09-17T08:51:51.642Z,18.60
2022-09-17T08:54:02.753Z,18.60
2022-09-17T08:56:16.292Z,18.70
2022-09-17T08:58:10.376Z,18.60
2022-09-17T09:00:03.103Z,18.30
2022-09-17T09:02:21.960Z,18.10
2022-09-17T09:04:45.082Z,17.90
2022-09-17T09:06:23.332Z,17.60
2022-09-17T09:08:31.463Z,17.30
2022-09-17T09:10:26.687Z,17.20
2022-09-17T09:12:13.584Z,17.00
2022-09-17T09:14:22.077Z,16.80
2022-09-17T09:16:03.734Z,16.70
2022-09-17T09:17:44.557Z,16.60
2022-09-17T09:19:30.936Z,16.50
2022-09-17T09:21:30.647Z,16.60
2022-09-17T09:23:51.037Z,16.60
2022-09-17T09:25:36.997Z,16.50
2022-09-17T09:27:26.855Z,16.40
2022-09-17T09:29:41.744Z,16.40
2022-09-17T09:31:47.133Z,16.20
2022-09-17T09:33:35.761Z,16.10
2022-09-17T09:35:39.405Z,15.90
2022-09-17T09:37:31.619Z,15.90
2022-09-17T09:39:25.973Z,15.90
2022-09-17T09:41:19.876Z,16.00
2022-09-17T09:43:00.060Z,15.90
2022-09-17T09:44:32.761Z,15.90
2022-09-17T09:46:51.267Z,16.00
2022-09-17T09:49:11.769Z,16.00
2022-09-17T09:51:08.326Z,15.90
2022-09-17T09:53:15.724Z,15.80
2022-09-17T09:55:48.323Z,15.70
2022-09-17T09:57:47.538Z,15.60
2022-09-17T09:59:20.760Z,15.50
2022-09-17T10:00:53.095Z,15.50
2022-09-17T10:02:25.428Z,15.40
2022-09-17T10:03:58.917Z,15.40
2022-09-17T10:05:31.813Z,15.40
2022-09-17T10:07:11.612Z,15.50
2022-09-17T10:08:56.176Z,15.40
2022-09-17T10:10:28.452Z,15.40
2022-09-17T10:12:21.698Z,15.30
2022-09-17T10:14:13.495Z,15.20
2022-09-17T10:15:45.697Z,15.10
2022-09-17T10:17:26.633Z,15.00
2022-09-17T10:19:06.778Z,14.90
2022-09-17T10:21:01.293Z,14.70
2022-09-17T10:22:45.345Z,14.70
2022-09-17T10:24:31.087Z,14.70
2022-09-17T10:26:04.000Z,14.60
2022-09-17T10:27:37.017Z,14.60
2022-09-17T10:29:20.852Z,14.50
2022-09-17T10:31:08.515Z,14.50
2022-09-17T10:32:41.440Z,14.40
2022-09-17T10:34:38.395Z,14.40
2022-09-17T10:36:14.767Z,14.40
2022-09-17T10:37:50.547Z,14.50
2022-09-17T10:39:34.156Z,14.60
2022-09-17T10:41:22.089Z,14.70
2022-09-17T10:43:16.732Z,14.70
2022-09-17T10:44:54.520Z,14.70
2022-09-17T10:46:33.844Z,14.70
2022-09-17T10:48:17.105Z,14.80
2022-09-17T10:49:57.444Z,14.80
2022-09-17T10:51:29.624Z,14.90
2022-09-17T10:53:15.520Z,14.70
2022-09-17T10:55:22.263Z,14.70
2022-09-17T10:57:01.754Z,14.70
2022-09-17T10:59:04.182Z,14.60
2022-09-17T11:00:45.289Z,14.50
2022-09-17T11:02:49.787Z,14.40
2022-09-17T11:04:48.267Z,14.40
2022-09-17T11:06:50.462Z,14.30
2022-09-17T11:08:31.233Z,14.30
2022-09-17T11:10:29.363Z,14.20
2022-09-17T11:12:31.461Z,14.20
2022-09-17T11:14:36.892Z,14.10
2022-09-17T11:16:43.531Z,14.10
2022-09-17T11:18:39.991Z,14.30
2022-09-17T11:21:21.169Z,14.50
2022-09-17T11:23:41.751Z,14.70
2022-09-17T11:25:42.129Z,14.90
2022-09-17T11:27:48.235Z,14.90
2022-09-17T11:29:51.047Z,14.90
2022-09-17T11:31:59.396Z,15.00
2022-09-17T11:34:02.180Z,15.00
2022-09-17T11:36:12.668Z,15.00
2022-09-17T11:38:07.328Z,15.00
2022-09-17T11:39:57.399Z,15.00
2022-09-17T11:41:40.775Z,15.00
2022-09-17T11:43:37.497Z,14.90
2022-09-17T11:45:27.436Z,14.90
2022-09-17T11:47:20.535Z,14.90
2022-09-17T11:49:12.847Z,14.80
2022-09-17T11:51:07.151Z,14.70
2022-09-17T11:53:16.664Z,14.60
2022-09-17T11:55:01.275Z,14.50
2022-09-17T11:56:45.853Z,14.40
2022-09-17T11:58:35.040Z,14.40
2022-09-17T12:00:23.980Z,14.30
2022-09-17T12:02:13.500Z,14.30
2022-09-17T12:03:59.597Z,14.30
2022-09-17T12:05:41.766Z,14.20
2022-09-17T12:07:53.092Z,14.20
2022-09-17T12:09:31.917Z,14.30
2022-09-17T12:11:22.927Z,14.30
2022-09-17T12:13:06.520Z,14.40
2022-09-17T12:15:17.943Z,14.50
2022-09-17T12:16:58.648Z,14.50
2022-09-17T12:18:58.238Z,14.50
2022-09-17T12:20:35.303Z,14.50
2022-09-17T12:22:22.279Z,14.40
2022-09-17T12:24:13.028Z,14.30
2022-09-17T12:26:35.561Z,14.20
2022-09-17T12:28:24.721Z,14.10
2022-09-17T12:30:22.439Z,13.90
2022-09-17T12:32:39.350Z,13.70
2022-09-17T12:34:23.748Z,13.60
2022-09-17T12:36:51.312Z,13.50
2022-09-17T12:38:44.909Z,13.50
2022-09-17T12:40:41.263Z,13.30
2022-09-17T12:42:34.168Z,13.30
2022-09-17T12:44:31.697Z,13.30
2022-09-17T12:46:22.892Z,13.40
2022-09-17T12:48:34.778Z,13.40
2022-09-17T12:50:41.894Z,13.40
2022-09-17T12:52:53.959Z,13.40
2022-09-17T12:54:50.738Z,13.40
2022-09-17T12:56:46.878Z,13.30
2022-09-17T12:58:49.306Z,13.30
2022-09-17T13:00:22.218Z,13.30
2022-09-17T13:02:27.080Z,13.30
2022-09-17T13:04:59.876Z,13.30
2022-09-17T13:07:01.483Z,13.30
2022-09-17T13:08:52.655Z,13.30
2022-09-17T13:11:26.092Z,13.30
2022-09-17T13:13:10.979Z,13.30
2022-09-17T13:14:57.255Z,13.30
2022-09-17T13:16:51.577Z,13.40
2022-09-17T13:18:59.556Z,13.50
2022-09-17T13:21:02.038Z,13.50
2022-09-17T13:22:46.647Z,13.70
2022-09-17T13:24:29.722Z,13.80
2022-09-17T13:26:05.778Z,13.90
2022-09-17T13:27:39.566Z,14.20
2022-09-17T13:29:14.569Z,14.30
2022-09-17T13:31:01.881Z,14.50
2022-09-17T13:32:34.653Z,14.60
2022-09-17T13:34:21.848Z,14.80
2022-09-17T13:35:54.052Z,14.90
2022-09-17T13:37:26.334Z,15.00
2022-09-17T13:38:59.951Z,15.00
2022-09-17T13:40:35.093Z,15.00
2022-09-17T13:42:42.495Z,14.90
2022-09-17T13:44:23.905Z,15.00
2022-09-17T13:45:59.418Z,15.00
2022-09-17T13:47:36.091Z,15.10
2022-09-17T13:49:16.626Z,15.20
2022-09-17T13:50:50.172Z,15.30
2022-09-17T13:52:46.004Z,15.40
2022-09-17T13:54:22.752Z,15.50
2022-09-17T13:55:59.415Z,15.60
2022-09-17T13:57:47.047Z,15.70
2022-09-17T13:59:27.454Z,15.90
2022-09-17T14:01:11.809Z,15.90
2022-09-17T14:02:44.466Z,15.90
2022-09-17T14:04:47.235Z,15.80
2022-09-17T14:06:21.194Z,15.90
2022-09-17T14:08:29.194Z,15.90
2022-09-17T14:10:35.395Z,15.80
2022-09-17T14:12:45.571Z,15.70
2022-09-17T14:14:47.694Z,15.70
2022-09-17T14:16:29.250Z,15.70
2022-09-17T14:18:06.078Z,15.60
2022-09-17T14:19:51.515Z,15.50
2022-09-17T14:21:36.052Z,15.50
2022-09-17T14:23:12.877Z,15.50
2022-09-17T14:24:52.303Z,15.60
2022-09-17T14:26:53.380Z,15.50
2022-09-17T14:28:54.335Z,15.60
2022-09-17T14:30:34.467Z,15.50
2022-09-17T14:32:15.414Z,15.40
2022-09-17T14:33:48.719Z,15.40
2022-09-17T14:35:26.456Z,15.60
2022-09-17T14:37:00.080Z,15.80
2022-09-17T14:38:49.288Z,15.70
2022-09-17T14:40:24.083Z,15.70
2022-09-17T14:41:56.404Z,15.70
2022-09-17T14:43:48.923Z,15.70
2022-09-17T14:45:42.588Z,15.70
2022-09-17T14:47:20.170Z,15.60
2022-09-17T14:48:52.637Z,15.50
2022-09-17T14:50:26.774Z,15.40
2022-09-17T14:52:01.792Z,15.40
2022-09-17T14:53:34.024Z,15.40
2022-09-17T14:55:25.344Z,15.30
2022-09-17T14:57:03.947Z,15.40
2022-09-17T14:58:42.055Z,15.30
2022-09-17T15:00:31.527Z,15.30
2022-09-17T15:02:04.940Z,15.30
2022-09-17T15:03:37.147Z,15.20
2022-09-17T15:05:27.096Z,15.20
2022-09-17T15:07:12.634Z,15.20
2022-09-17T15:08:46.077Z,15.10
2022-09-17T15:10:22.260Z,15.10
2022-09-17T15:12:00.088Z,15.00
2022-09-17T15:13:53.163Z,15.00
2022-09-17T15:15:27.278Z,15.00
2022-09-17T15:17:03.864Z,14.90
2022-09-17T15:18:47.635Z,14.80
2022-09-17T15:20:31.223Z,14.70
2022-09-17T15:22:08.507Z,14.70
2022-09-17T15:23:43.594Z,14.60
2022-09-17T15:25:26.428Z,14.60
2022-09-17T15:27:04.926Z,14.50
2022-09-17T15:28:43.851Z,14.50
2022-09-17T15:30:20.455Z,14.40
2022-09-17T15:31:53.140Z,14.40
2022-09-17T15:33:27.925Z,14.30
2022-09-17T15:35:15.203Z,14.30
2022-09-17T15:37:28.296Z,14.30
2022-09-17T15:39:00.531Z,14.20
2022-09-17T15:40:36.318Z,14.20
2022-09-17T15:42:27.625Z,14.10
2022-09-17T15:44:30.373Z,14.10
2022-09-17T15:46:31.193Z,14.20
2022-09-17T15:48:07.911Z,14.10
2022-09-17T15:49:43.719Z,14.00
2022-09-17T15:51:29.302Z,14.00
2022-09-17T15:53:10.485Z,14.00
2022-09-17T15:54:42.815Z,13.90
2022-09-17T15:56:19.396Z,13.80
2022-09-17T15:57:51.565Z,13.80
2022-09-17T15:59:34.686Z,13.80
2022-09-17T16:01:15.874Z,13.80
2022-09-17T16:02:49.432Z,13.80
2022-09-17T16:04:27.292Z,13.70
2022-09-17T16:06:02.739Z,13.70
2022-09-17T16:07:38.265Z,13.70
2022-09-17T16:09:42.726Z,13.70
2022-09-17T16:11:19.301Z,13.60
2022-09-17T16:12:51.609Z,13.60
2022-09-17T16:14:24.065Z,13.50
2022-09-17T16:15:56.547Z,13.50
2022-09-17T16:17:37.998Z,13.50
2022-09-17T16:19:11.073Z,13.50
2022-09-17T16:20:43.599Z,13.50
2022-09-17T16:22:16.015Z,13.50
2022-09-17T16:23:48.131Z,13.40
2022-09-17T16:25:26.091Z,13.40
2022-09-17T16:26:58.543Z,13.40
2022-09-17T16:28:31.438Z,13.40
2022-09-17T16:30:11.029Z,13.40
2022-09-17T16:31:44.879Z,13.30
2022-09-17T16:33:18.960Z,13.30
2022-09-17T16:34:51.416Z,13.30
2022-09-17T16:36:23.792Z,13.30
2022-09-17T16:37:57.314Z,13.30
2022-09-17T16:39:29.551Z,13.30
2022-09-17T16:41:05.898Z,13.20
2022-09-17T16:42:39.126Z,13.20
2022-09-17T16:44:11.447Z,13.20
2022-09-17T16:45:44.688Z,13.10
2022-09-17T16:47:16.903Z,13.10
2022-09-17T16:48:52.325Z,13.10
2022-09-17T16:50:25.354Z,13.10
2022-09-17T16:51:57.534Z,13.00
2022-09-17T16:53:29.724Z,13.00
2022-09-17T16:55:02.665Z,13.00
2022-09-17T16:56:35.068Z,12.90
2022-09-17T16:58:07.172Z,13.00
2022-09-17T16:59:39.312Z,12.90
2022-09-17T17:01:15.444Z,12.90
2022-09-17T17:02:56.949Z,12.80
2022-09-17T17:04:29.418Z,12.80
2022-09-17T17:06:02.009Z,12.70
2022-09-17T17:07:35.681Z,12.70
2022-09-17T17:09:08.127Z,12.70
2022-09-17T17:10:40.312Z,12.70
2022-09-17T17:12:12.522Z,12.70
2022-09-17T17:13:45.113Z,12.70
2022-09-17T17:15:17.484Z,12.60
2022-09-17T17:16:49.634Z,12.60
2022-09-17T17:18:22.001Z,12.60
2022-09-17T17:19:54.521Z,12.60
2022-09-17T17:21:26.978Z,12.60
2022-09-17T17:22:59.081Z,12.50
2022-09-17T17:24:31.354Z,12.50
2022-09-17T17:26:03.900Z,12.50
2022-09-17T17:27:38.217Z,12.50
2022-09-17T17:29:10.446Z,12.50
2022-09-17T17:30:47.348Z,12.40
2022-09-17T17:32:19.494Z,12.40
2022-09-17T17:33:51.815Z,12.30
2022-09-17T17:35:24.864Z,12.30
2022-09-17T17:36:58.013Z,12.30
2022-09-17T17:38:30.255Z,12.30
2022-09-17T17:40:08.146Z,12.30
2022-09-17T17:41:40.651Z,12.30
2022-09-17T17:43:13.556Z,12.20
2022-09-17T17:44:46.243Z,12.20
2022-09-17T17:46:18.797Z,12.20
2022-09-17T17:47:52.557Z,12.20
2022-09-17T17:49:24.700Z,12.20
2022-09-17T17:51:07.054Z,12.10
2022-09-17T17:52:40.308Z,12.10
2022-09-17T17:54:12.469Z,12.10
2022-09-17T17:55:54.552Z,12.10
2022-09-17T17:57:26.693Z,12.10
2022-09-17T17:58:59.272Z,12.10
2022-09-17T18:00:31.801Z,12.10
2022-09-17T18:02:04.532Z,12.10
2022-09-17T18:03:37.222Z,12.10
2022-09-17T18:05:11.650Z,12.10
2022-09-17T18:06:43.955Z,12.10
2022-09-17T18:08:16.109Z,12.10
2022-09-17T18:09:48.245Z,12.10
2022-09-17T18:11:22.240Z,12.00
2022-09-17T18:12:54.351Z,12.00
2022-09-17T18:14:26.587Z,12.10
2022-09-17T18:16:01.620Z,12.00
2022-09-17T18:17:36.332Z,12.10
2022-09-17T18:19:11.394Z,12.00
2022-09-17T18:20:43.588Z,12.00
2022-09-17T18:22:15.774Z,12.00
2022-09-17T18:23:50.049Z,12.00
2022-09-17T18:25:22.313Z,12.00
2022-09-17T18:26:54.487Z,11.90
2022-09-17T18:28:29.172Z,12.00
2022-09-17T18:30:01.538Z,12.00
2022-09-17T18:31:36.169Z,11.90
2022-09-17T18:33:08.371Z,11.90
2022-09-17T18:34:41.776Z,11.90
2022-09-17T18:36:14.248Z,11.90
2022-09-17T18:37:46.825Z,11.90
2022-09-17T18:41:13.691Z,11.90
2022-09-17T18:42:48.431Z,11.80
2022-09-17T18:44:21.861Z,11.80
2022-09-17T18:45:58.708Z,11.80
2022-09-17T18:47:30.869Z,11.80
2022-09-17T18:49:04.715Z,11.80
2022-09-17T18:50:36.859Z,11.80
2022-09-17T18:52:08.997Z,11.80
2022-09-17T18:53:41.278Z,11.80
2022-09-17T18:55:13.698Z,11.80
2022-09-17T18:56:45.871Z,11.80
2022-09-17T18:58:18.077Z,11.80
2022-09-17T18:59:50.235Z,11.80
2022-09-17T19:01:26.184Z,11.80
2022-09-17T19:02:58.451Z,11.80
2022-09-17T19:04:30.549Z,11.80
2022-09-17T19:06:05.663Z,11.80
2022-09-17T19:07:37.947Z,11.80
2022-09-17T19:09:11.638Z,11.80
2022-09-17T19:10:51.179Z,11.80
2022-09-17T19:12:23.481Z,11.70
2022-09-17T19:13:56.220Z,11.70
2022-09-17T19:15:28.413Z,11.80
2022-09-17T19:17:00.541Z,11.80
2022-09-17T19:18:35.696Z,11.70
2022-09-17T19:20:08.863Z,11.70
2022-09-17T19:21:40.995Z,11.70
2022-09-17T19:23:13.148Z,11.80
2022-09-17T19:24:45.330Z,11.80
2022-09-17T19:26:22.258Z,11.80
2022-09-17T19:27:56.008Z,11.80
2022-09-17T19:29:28.144Z,11.80
2022-09-17T19:31:16.822Z,11.80
2022-09-17T19:32:49.703Z,11.80
2022-09-17T19:34:21.814Z,11.80
2022-09-17T19:36:00.711Z,11.80
2022-09-17T19:37:32.984Z,11.80
2022-09-17T19:39:05.586Z,11.80
2022-09-17T19:40:37.837Z,11.80
2022-09-17T19:42:11.036Z,11.80
2022-09-17T19:43:43.404Z,11.80
2022-09-17T19:45:16.092Z,11.80
2022-09-17T19:46:51.144Z,11.80
2022-09-17T19:48:25.292Z,11.80
2022-09-17T19:49:57.688Z,11.80
2022-09-17T19:51:30.976Z,11.80
2022-09-17T19:53:03.618Z,11.80
2022-09-17T19:54:35.753Z,11.80
2022-09-17T19:56:16.537Z,11.80
2022-09-17T19:57:49.052Z,11.80
2022-09-17T19:59:21.179Z,11.80
2022-09-17T20:00:58.236Z,11.80
2022-09-17T20:02:30.391Z,11.70
2022-09-17T20:04:03.564Z,11.70
2022-09-17T20:05:36.260Z,11.70
2022-09-17T20:07:08.703Z,11.70
2022-09-17T20:08:53.071Z,11.70
2022-09-17T20:10:26.193Z,11.70
2022-09-17T20:11:59.463Z,11.60
2022-09-17T20:13:31.670Z,11.60
2022-09-17T20:15:04.431Z,11.60
2022-09-17T20:16:39.481Z,11.60
2022-09-17T20:18:12.614Z,11.60
2022-09-17T20:19:44.786Z,11.60
2022-09-17T20:21:24.782Z,11.60
2022-09-17T20:22:57.126Z,11.50
2022-09-17T20:24:29.320Z,11.50
2022-09-17T20:26:01.598Z,11.50
2022-09-17T20:27:33.976Z,11.50
2022-09-17T20:29:06.525Z,11.50
2022-09-17T20:30:38.730Z,11.50
2022-09-17T20:32:11.247Z,11.50
2022-09-17T20:33:44.159Z,11.50
2022-09-17T20:35:16.667Z,11.50
2022-09-17T20:36:48.765Z,11.50
2022-09-17T20:40:13.404Z,11.50
2022-09-17T20:41:45.900Z,11.50
2022-09-17T20:43:18.023Z,11.50
2022-09-17T20:44:50.131Z,11.40
2022-09-17T20:46:28.653Z,11.40
2022-09-17T20:48:02.082Z,11.40
2022-09-17T20:49:34.521Z,11.40
2022-09-17T20:51:16.281Z,11.40
2022-09-17T20:52:48.475Z,11.40
2022-09-17T20:54:20.852Z,11.40
2022-09-17T20:55:56.766Z,11.40
2022-09-17T20:57:31.420Z,11.40
2022-09-17T20:59:15.346Z,11.40
2022-09-17T21:00:47.871Z,11.40
2022-09-17T21:02:22.122Z,11.40
2022-09-17T21:03:54.758Z,11.40
2022-09-17T21:05:26.905Z,11.40
2022-09-17T21:06:59.244Z,11.40
2022-09-17T21:08:31.423Z,11.40
2022-09-17T21:10:03.816Z,11.30
2022-09-17T21:11:36.575Z,11.40
2022-09-17T21:13:08.900Z,11.40
2022-09-17T21:14:41.079Z,11.40
2022-09-17T21:16:14.450Z,11.40
2022-09-17T21:17:48.186Z,11.40
2022-09-17T21:19:23.075Z,11.40
2022-09-17T21:20:55.461Z,11.40
2022-09-17T21:22:27.695Z,11.30
2022-09-17T21:24:05.496Z,11.30
2022-09-17T21:25:37.845Z,11.30
2022-09-17T21:27:10.106Z,11.30
2022-09-17T21:28:45.307Z,11.40
2022-09-17T21:30:17.656Z,11.40
2022-09-17T21:31:50.058Z,11.40
2022-09-17T21:33:22.219Z,11.40
2022-09-17T21:34:54.308Z,11.40
2022-09-17T21:36:29.826Z,11.40
2022-09-17T21:38:02.309Z,11.40
2022-09-17T21:39:35.577Z,11.30
2022-09-17T21:41:14.992Z,11.30
2022-09-17T21:42:48.500Z,11.30